Time;durP1;ratioP1;P1;durP2;ratioP2;P2;SDS_P1;SDS_P2;PMS_P1;PMS_P2;Temp;Humidity;BMP_temperature;BMP_pressure;BME280_temperature;BME280_humidity;BME280_pressure;Samples;Min_cycle;Max_cycle;Signal;HPM_P1;HPM_P2
2022/10/11 00:02:16;;;;;;;18.55;8.27;;;13.40;99.90;;;;;;5048736;28;20041;-65
2022/10/11 00:04:42;;;;;;;16.15;7.45;;;13.40;99.90;;;;;;5050259;28;20091;-66
2022/10/11 00:07:07;;;;;;;605.38;19.10;;;13.30;99.90;;;;;;5050591;28;20039;-63
2022/10/11 00:09:33;;;;;;;369.40;12.10;;;13.30;99.90;;;;;;5049447;28;20113;-63
2022/10/11 00:11:59;;;;;;;18.73;5.05;;;13.20;99.90;;;;;;5050560;28;20064;-65
2022/10/11 00:14:25;;;;;;;22.25;5.60;;;13.20;99.90;;;;;;5049424;28;20037;-66
2022/10/11 00:16:52;;;;;;;15.25;6.53;;;13.10;99.90;;;;;;5049083;28;20158;-66
2022/10/11 00:19:18;;;;;;;16.15;7.72;;;13.00;99.90;;;;;;5049568;28;20071;-64
2022/10/11 00:21:43;;;;;;;19.35;7.88;;;13.00;99.90;;;;;;5049876;28;20088;-65
2022/10/11 00:24:10;;;;;;;18.95;8.48;;;13.00;99.90;;;;;;5050281;28;20028;-65
2022/10/11 00:26:36;;;;;;;23.90;8.60;;;13.00;99.90;;;;;;5049666;28;20450;-64
2022/10/11 00:29:01;;;;;;;20.92;9.02;;;13.00;99.90;;;;;;5049749;28;20036;-65
2022/10/11 00:31:27;;;;;;;17.73;8.35;;;12.90;99.90;;;;;;5049066;28;20044;-65
2022/10/11 00:33:53;;;;;;;25.08;9.40;;;13.00;99.90;;;;;;5049788;28;20075;-65
2022/10/11 00:36:20;;;;;;;25.08;8.93;;;12.90;99.90;;;;;;5049312;28;20079;-65
2022/10/11 00:38:46;;;;;;;19.15;8.65;;;12.90;99.90;;;;;;5049831;28;20162;-65
2022/10/11 00:41:12;;;;;;;16.80;8.82;;;13.00;99.90;;;;;;5049863;28;20483;-63
2022/10/11 00:43:38;;;;;;;21.65;9.05;;;13.00;99.90;;;;;;5049134;28;20218;-64
2022/10/11 00:46:16;;;;;;;20.40;7.97;;;12.90;99.90;;;;;;5049741;28;20036;-66
2022/10/11 00:48:49;;;;;;;17.05;7.43;;;12.90;99.90;;;;;;5049806;28;20060;-65
2022/10/11 00:51:24;;;;;;;15.77;8.02;;;12.80;99.90;;;;;;5049058;28;20064;-70
2022/10/11 00:53:51;;;;;;;21.90;8.50;;;12.80;99.90;;;;;;5049525;28;20021;-67
2022/10/11 00:56:25;;;;;;;20.13;8.80;;;12.80;99.90;;;;;;5049029;28;20025;-69
2022/10/11 00:58:52;;;;;;;16.45;8.65;;;12.90;99.90;;;;;;5049334;28;20029;-65
2022/10/11 01:01:18;;;;;;;19.40;8.20;;;12.90;99.90;;;;;;5048699;28;20106;-68
2022/10/11 01:03:44;;;;;;;23.67;8.70;;;12.90;99.90;;;;;;5049621;28;20466;-65
2022/10/11 01:06:09;;;;;;;26.30;8.30;;;13.00;99.90;;;;;;5049233;28;20465;-64
2022/10/11 01:08:37;;;;;;;24.05;10.18;;;13.00;99.90;;;;;;5048749;28;20082;-67
2022/10/11 01:11:03;;;;;;;20.77;9.55;;;13.00;99.90;;;;;;5049360;28;20166;-66
2022/10/11 01:13:34;;;;;;;20.70;8.50;;;13.00;99.90;;;;;;5048383;28;20509;-64
2022/10/11 01:16:14;;;;;;;23.25;9.57;;;13.00;99.90;;;;;;5049673;28;20032;-65
2022/10/11 01:19:06;;;;;;;26.23;9.82;;;13.00;99.90;;;;;;5048952;28;20067;-65
2022/10/11 01:21:32;;;;;;;27.35;9.90;;;13.00;99.90;;;;;;5046771;28;20438;-65
2022/10/11 01:24:48;;;;;;;26.02;10.43;;;13.00;99.90;;;;;;5049279;28;20044;-65
2022/10/11 01:27:39;;;;;;;22.50;10.88;;;13.10;99.90;;;;;;5022428;28;20041;-65
2022/10/11 01:30:25;;;;;;;20.50;10.30;;;13.10;99.90;;;;;;5049324;28;20056;-64
2022/10/11 01:33:19;;;;;;;24.23;10.02;;;13.10;99.90;;;;;;5049177;28;20080;-66
2022/10/11 01:36:06;;;;;;;30.42;11.38;;;13.00;99.90;;;;;;5049222;28;20033;-65
2022/10/11 01:38:48;;;;;;;27.25;10.80;;;13.00;99.90;;;;;;5048302;28;20033;-65
2022/10/11 01:41:17;;;;;;;24.15;9.98;;;12.90;99.90;;;;;;5047811;28;20037;-65
2022/10/11 01:43:44;;;;;;;26.25;11.05;;;12.90;99.90;;;;;;5048488;28;20025;-65
2022/10/11 01:46:10;;;;;;;29.42;11.52;;;12.90;99.90;;;;;;5049132;28;20029;-65
2022/10/11 01:48:57;;;;;;;22.42;10.32;;;12.90;99.90;;;;;;5048367;28;20032;-65
2022/10/11 01:51:33;;;;;;;23.20;10.65;;;12.80;99.90;;;;;;5048004;28;20033;-66
2022/10/11 01:54:08;;;;;;;26.67;11.48;;;12.80;99.90;;;;;;5048491;28;20068;-64
2022/10/11 01:56:43;;;;;;;31.48;11.25;;;12.80;99.90;;;;;;5048206;28;20031;-64
2022/10/11 01:59:18;;;;;;;29.08;10.98;;;12.80;99.90;;;;;;5049056;28;20108;-65
2022/10/11 02:02:19;;;;;;;27.90;11.93;;;12.80;99.90;;;;;;5048416;28;20065;-65
2022/10/11 02:04:49;;;;;;;25.67;10.15;;;12.80;99.90;;;;;;5047308;28;20037;-65
2022/10/11 02:07:24;;;;;;;23.48;11.57;;;12.70;99.90;;;;;;5048970;28;20100;-65
2022/10/11 02:10:05;;;;;;;20.15;11.25;;;12.70;99.90;;;;;;5048923;28;20037;-66
2022/10/11 02:12:42;;;;;;;25.95;10.48;;;12.70;99.90;;;;;;5047874;28;20033;-65
2022/10/11 02:15:09;;;;;;;26.55;10.88;;;12.70;99.90;;;;;;5048967;28;20032;-65
2022/10/11 02:17:48;;;;;;;27.40;11.98;;;12.70;99.90;;;;;;5047984;28;20032;-66
2022/10/11 02:20:19;;;;;;;22.98;10.02;;;12.60;99.90;;;;;;5049091;28;20082;-65
2022/10/11 02:22:47;;;;;;;26.58;11.75;;;12.60;99.90;;;;;;5047942;28;20041;-66
2022/10/11 02:25:18;;;;;;;29.63;11.48;;;12.70;99.90;;;;;;5050886;28;20043;-66
2022/10/11 02:27:47;;;;;;;26.60;11.98;;;12.60;99.90;;;;;;5052012;28;20029;-64
2022/10/11 02:30:14;;;;;;;25.45;11.57;;;12.70;99.90;;;;;;5052533;28;20071;-65
2022/10/11 02:32:42;;;;;;;36.92;13.88;;;12.70;99.90;;;;;;5051925;28;20103;-65
2022/10/11 02:35:09;;;;;;;32.75;14.27;;;12.70;99.90;;;;;;5052009;28;20375;-65
2022/10/11 02:37:51;;;;;;;31.08;13.88;;;12.70;99.90;;;;;;5050342;28;20021;-66
2022/10/11 02:40:35;;;;;;;37.88;15.45;;;12.80;99.90;;;;;;5052008;28;20032;-66
2022/10/11 02:43:11;;;;;;;27.85;12.73;;;12.80;99.90;;;;;;5052205;28;20041;-64
2022/10/11 02:45:42;;;;;;;33.30;13.40;;;12.80;99.90;;;;;;5051444;28;20036;-64
2022/10/11 02:48:10;;;;;;;30.38;14.18;;;12.80;99.90;;;;;;5051921;28;20447;-64
2022/10/11 02:50:38;;;;;;;40.33;15.18;;;12.90;99.90;;;;;;5050333;28;20472;-66
2022/10/11 02:53:03;;;;;;;28.17;13.48;;;12.90;99.90;;;;;;5050772;28;20041;-63
2022/10/11 02:55:29;;;;;;;28.05;12.30;;;12.90;99.90;;;;;;5051020;28;20029;-66
2022/10/11 02:57:55;;;;;;;27.55;12.07;;;12.90;99.90;;;;;;5051910;28;20104;-65
2022/10/11 03:00:21;;;;;;;23.40;11.27;;;12.80;99.90;;;;;;5051686;28;20104;-69
2022/10/11 03:02:47;;;;;;;30.52;12.45;;;12.90;99.90;;;;;;5051295;28;20124;-65
2022/10/11 03:05:12;;;;;;;26.33;12.10;;;12.90;99.90;;;;;;5051663;28;20070;-64
2022/10/11 03:07:38;;;;;;;26.88;12.02;;;12.90;99.90;;;;;;5050956;28;20537;-65
2022/10/11 03:10:05;;;;;;;23.75;12.18;;;12.90;99.90;;;;;;5051582;28;20040;-66
2022/10/11 03:12:31;;;;;;;28.40;11.82;;;12.90;99.90;;;;;;5050963;28;20106;-66
2022/10/11 03:14:56;;;;;;;24.60;11.75;;;13.00;99.90;;;;;;5051509;28;20025;-63
2022/10/11 03:17:22;;;;;;;29.90;12.57;;;13.00;99.90;;;;;;5050815;28;20032;-69
2022/10/11 03:19:48;;;;;;;30.05;12.65;;;13.00;99.90;;;;;;5050349;28;20413;-64
2022/10/11 03:22:13;;;;;;;21.52;10.05;;;13.00;99.90;;;;;;5051107;28;20528;-66
2022/10/11 03:24:39;;;;;;;28.20;10.77;;;13.00;99.90;;;;;;5049387;28;20462;-64
2022/10/11 03:27:05;;;;;;;24.63;12.13;;;13.00;99.90;;;;;;5051290;28;20435;-64
2022/10/11 03:29:30;;;;;;;29.50;12.18;;;13.10;99.90;;;;;;5049183;28;20039;-65
2022/10/11 03:31:56;;;;;;;31.70;12.20;;;13.10;99.90;;;;;;5050801;28;20082;-65
2022/10/11 03:34:21;;;;;;;26.85;12.75;;;13.10;99.90;;;;;;5051164;28;20051;-66
2022/10/11 03:36:47;;;;;;;26.65;12.80;;;13.10;99.90;;;;;;5050236;28;20291;-66
2022/10/11 03:39:13;;;;;;;30.60;13.80;;;13.10;99.90;;;;;;5051460;28;20029;-66
2022/10/11 03:41:38;;;;;;;34.25;13.27;;;13.20;99.90;;;;;;5049998;28;20102;-66
2022/10/11 03:44:04;;;;;;;36.33;15.98;;;13.20;99.90;;;;;;5050823;28;20033;-65
2022/10/11 03:46:30;;;;;;;28.95;13.63;;;13.20;99.90;;;;;;5049968;28;20366;-63
2022/10/11 03:48:55;;;;;;;27.77;13.27;;;13.20;99.90;;;;;;5050844;28;20033;-66
2022/10/11 03:51:21;;;;;;;27.05;12.23;;;13.20;99.90;;;;;;5050806;28;20041;-66
2022/10/11 03:53:47;;;;;;;27.55;11.13;;;13.20;99.90;;;;;;5050031;28;20807;-66
2022/10/11 03:56:13;;;;;;;17.33;9.57;;;13.20;99.90;;;;;;5050728;28;20032;-66
2022/10/11 03:58:40;;;;;;;17.05;9.10;;;13.20;99.90;;;;;;5049904;28;20424;-64
2022/10/11 04:01:06;;;;;;;19.73;9.77;;;13.10;99.90;;;;;;5050483;28;20041;-65
2022/10/11 04:03:32;;;;;;;22.27;11.05;;;13.10;99.90;;;;;;5049831;28;20036;-65
2022/10/11 04:05:58;;;;;;;25.85;11.70;;;13.00;99.90;;;;;;5050204;28;20039;-66
2022/10/11 04:08:23;;;;;;;25.63;11.18;;;13.00;99.90;;;;;;5050621;28;20371;-65
2022/10/11 04:10:49;;;;;;;23.98;11.25;;;13.00;99.90;;;;;;5049586;28;20082;-66
2022/10/11 04:13:15;;;;;;;29.90;11.75;;;13.00;99.90;;;;;;5049902;28;20485;-66
2022/10/11 04:15:41;;;;;;;25.55;12.75;;;13.10;99.90;;;;;;5048323;28;20766;-66
2022/10/11 04:18:07;;;;;;;34.08;14.40;;;13.10;99.90;;;;;;5050121;28;20061;-65
2022/10/11 04:20:34;;;;;;;35.60;15.05;;;13.20;99.90;;;;;;5048986;28;20477;-65
2022/10/11 04:22:59;;;;;;;38.30;14.20;;;13.20;99.90;;;;;;5050287;28;20045;-64
2022/10/11 04:25:25;;;;;;;34.78;14.68;;;13.20;99.90;;;;;;5050122;28;20369;-66
2022/10/11 04:27:50;;;;;;;31.15;14.55;;;13.20;99.90;;;;;;5049614;28;20374;-65
2022/10/11 04:30:16;;;;;;;28.33;13.18;;;13.20;99.90;;;;;;5048901;28;20424;-65
2022/10/11 04:32:42;;;;;;;34.03;14.65;;;13.30;99.90;;;;;;5049220;28;20047;-67
2022/10/11 04:35:08;;;;;;;33.05;14.48;;;13.30;99.90;;;;;;5050054;28;20029;-66
2022/10/11 04:37:34;;;;;;;30.17;13.80;;;13.30;99.90;;;;;;5049153;28;20028;-67
2022/10/11 04:40:00;;;;;;;35.03;14.93;;;13.30;99.90;;;;;;5049952;28;20182;-64
2022/10/11 04:42:25;;;;;;;34.80;14.70;;;13.30;99.90;;;;;;5049950;28;20458;-65
2022/10/11 04:44:51;;;;;;;35.80;16.50;;;13.30;99.90;;;;;;5049077;28;20033;-64
2022/10/11 04:47:17;;;;;;;30.05;15.32;;;13.30;99.90;;;;;;5049641;28;20067;-65
2022/10/11 04:49:42;;;;;;;31.88;14.32;;;13.30;99.90;;;;;;5049068;28;20033;-66
2022/10/11 04:52:08;;;;;;;34.83;15.70;;;13.30;99.90;;;;;;5049302;28;20085;-64
2022/10/11 04:54:33;;;;;;;32.50;14.00;;;13.30;99.90;;;;;;5049263;28;20044;-65
2022/10/11 04:56:59;;;;;;;33.97;14.77;;;13.30;99.90;;;;;;5048899;28;20029;-65
2022/10/11 04:59:25;;;;;;;32.95;14.95;;;13.20;99.90;;;;;;5049650;28;20079;-66
2022/10/11 05:01:51;;;;;;;29.98;13.65;;;13.20;99.90;;;;;;5048710;28;20029;-64
2022/10/11 05:04:16;;;;;;;32.42;14.15;;;13.30;99.90;;;;;;5049627;28;20053;-65
2022/10/11 05:06:42;;;;;;;36.30;15.93;;;13.30;99.90;;;;;;5048585;28;20029;-66
2022/10/11 05:09:07;;;;;;;29.98;13.77;;;13.30;99.90;;;;;;5049283;28;20040;-65
2022/10/11 05:11:33;;;;;;;33.10;14.40;;;13.30;99.90;;;;;;5048745;28;20488;-64
2022/10/11 05:13:59;;;;;;;33.55;15.50;;;13.20;99.90;;;;;;5049285;28;20029;-65
2022/10/11 05:16:24;;;;;;;29.25;14.13;;;13.20;99.90;;;;;;5049227;28;20808;-66
2022/10/11 05:18:50;;;;;;;31.60;14.63;;;13.20;99.90;;;;;;5048704;28;20531;-66
2022/10/11 05:21:26;;;;;;;33.45;14.07;;;13.10;99.90;;;;;;5049092;28;20072;-63
2022/10/11 05:23:56;;;;;;;32.05;15.27;;;13.10;99.90;;;;;;5048487;28;20029;-65
2022/10/11 05:26:24;;;;;;;31.33;15.07;;;13.20;99.90;;;;;;5049403;28;20029;-65
2022/10/11 05:28:50;;;;;;;39.10;15.68;;;13.20;99.90;;;;;;5028479;28;20256;-64
2022/10/11 05:31:15;;;;;;;32.03;16.35;;;13.20;99.90;;;;;;5029105;28;20042;-64
2022/10/11 05:33:41;;;;;;;36.78;14.88;;;13.20;99.90;;;;;;5044365;28;20036;-65
2022/10/11 05:36:08;;;;;;;26.75;14.07;;;13.30;99.90;;;;;;5049179;28;20437;-67
2022/10/11 05:38:34;;;;;;;27.50;14.10;;;13.30;99.90;;;;;;5048408;28;20346;-69
2022/10/11 05:41:01;;;;;;;27.33;12.82;;;13.30;99.90;;;;;;5049072;28;20060;-63
2022/10/11 05:43:27;;;;;;;32.35;14.27;;;13.30;99.90;;;;;;5049385;28;20036;-64
2022/10/11 05:45:53;;;;;;;25.95;12.00;;;13.30;99.90;;;;;;5048158;28;20566;-64
2022/10/11 05:48:19;;;;;;;25.35;10.98;;;13.30;99.90;;;;;;5049104;28;20029;-67
2022/10/11 05:50:44;;;;;;;26.23;12.05;;;13.30;99.90;;;;;;5048067;28;20036;-66
2022/10/11 05:53:10;;;;;;;24.90;11.85;;;13.30;99.90;;;;;;5048988;28;20048;-65
2022/10/11 05:55:41;;;;;;;24.77;13.10;;;13.30;99.90;;;;;;5048093;28;20051;-64
2022/10/11 05:58:11;;;;;;;29.30;12.82;;;13.20;99.90;;;;;;5049511;28;20385;-66
2022/10/11 06:00:37;;;;;;;27.45;11.98;;;13.30;99.90;;;;;;5052195;28;20116;-65
2022/10/11 06:03:05;;;;;;;38.30;15.50;;;13.30;99.90;;;;;;5052751;28;20037;-64
2022/10/11 06:05:30;;;;;;;36.05;14.68;;;13.30;99.90;;;;;;5052905;28;20039;-66
2022/10/11 06:07:57;;;;;;;33.20;13.50;;;13.30;99.90;;;;;;5052051;28;20120;-66
2022/10/11 06:10:23;;;;;;;33.38;13.32;;;13.30;99.90;;;;;;5052428;28;20025;-64
2022/10/11 06:12:49;;;;;;;29.27;12.68;;;13.30;99.90;;;;;;5051740;28;20060;-66
2022/10/11 06:15:15;;;;;;;23.52;11.27;;;13.30;99.90;;;;;;5051376;28;20123;-64
2022/10/11 06:17:40;;;;;;;20.55;10.20;;;13.30;99.90;;;;;;5051922;28;20070;-66
2022/10/11 06:20:06;;;;;;;21.90;10.40;;;13.20;99.90;;;;;;5052572;28;20364;-66
2022/10/11 06:22:32;;;;;;;22.10;10.68;;;13.20;99.90;;;;;;5052044;28;20060;-69
2022/10/11 06:24:58;;;;;;;22.25;9.77;;;13.20;99.90;;;;;;5050642;28;20397;-64
2022/10/11 06:27:23;;;;;;;20.45;10.73;;;13.20;99.90;;;;;;5052259;28;20493;-66
2022/10/11 06:29:49;;;;;;;26.60;11.20;;;13.20;99.90;;;;;;5051442;28;20040;-66
2022/10/11 06:32:15;;;;;;;26.40;11.02;;;13.20;99.90;;;;;;5052372;28;20040;-66
2022/10/11 06:34:41;;;;;;;24.33;11.57;;;13.20;99.90;;;;;;5051785;28;20056;-65
2022/10/11 06:37:07;;;;;;;24.88;13.25;;;13.20;99.90;;;;;;5051700;28;20543;-64
2022/10/11 06:39:33;;;;;;;27.58;13.07;;;13.20;99.90;;;;;;5052275;28;20029;-68
2022/10/11 06:41:59;;;;;;;27.23;13.95;;;13.20;99.90;;;;;;5051266;28;20103;-66
2022/10/11 06:44:25;;;;;;;26.05;13.45;;;13.20;99.90;;;;;;5052527;28;20091;-66
2022/10/11 06:46:51;;;;;;;26.95;12.23;;;13.20;99.90;;;;;;5051300;28;20033;-65
2022/10/11 06:49:17;;;;;;;27.60;12.10;;;13.30;99.90;;;;;;5052137;28;20033;-66
2022/10/11 06:51:42;;;;;;;26.63;12.35;;;13.30;99.90;;;;;;5050942;28;20036;-66
2022/10/11 06:54:08;;;;;;;32.00;13.13;;;13.40;99.90;;;;;;5051839;28;20037;-64
2022/10/11 06:56:34;;;;;;;41.50;16.95;;;13.40;99.90;;;;;;5051967;28;20029;-65
2022/10/11 06:59:00;;;;;;;38.75;14.75;;;13.40;99.90;;;;;;5050969;28;20029;-64
2022/10/11 07:01:26;;;;;;;43.78;17.75;;;13.40;99.90;;;;;;5051540;28;20535;-66
2022/10/11 07:03:53;;;;;;;52.13;20.90;;;13.30;99.90;;;;;;5051098;28;20389;-66
2022/10/11 07:06:24;;;;;;;42.03;19.17;;;13.30;99.90;;;;;;5051782;28;20429;-64
2022/10/11 07:08:50;;;;;;;61.45;22.83;;;13.40;99.90;;;;;;5050921;28;20029;-65
2022/10/11 07:11:21;;;;;;;65.63;21.92;;;13.40;99.90;;;;;;5050973;28;20060;-65
2022/10/11 07:13:55;;;;;;;73.03;22.20;;;13.40;99.90;;;;;;5050253;28;20040;-66
2022/10/11 07:16:22;;;;;;;63.33;22.85;;;13.40;99.90;;;;;;5051625;28;20039;-66
2022/10/11 07:18:52;;;;;;;71.70;23.25;;;13.40;99.90;;;;;;5050759;28;20029;-64
2022/10/11 07:21:18;;;;;;;61.70;23.77;;;13.50;99.90;;;;;;5051137;28;20056;-64
2022/10/11 07:23:44;;;;;;;64.35;23.88;;;13.60;99.90;;;;;;5048924;28;20128;-66
2022/10/11 07:26:10;;;;;;;71.65;24.23;;;13.60;99.90;;;;;;5050440;28;20025;-65
2022/10/11 07:28:37;;;;;;;67.85;22.50;;;13.70;99.90;;;;;;5051356;28;20119;-69
2022/10/11 07:31:12;;;;;;;68.15;23.30;;;13.70;99.90;;;;;;5050814;28;20057;-66
2022/10/11 07:33:37;;;;;;;54.80;22.05;;;13.70;99.90;;;;;;5050721;28;20025;-69
2022/10/11 07:36:04;;;;;;;69.30;23.08;;;13.80;99.90;;;;;;5050538;28;20071;-63
2022/10/11 07:38:30;;;;;;;59.97;22.65;;;13.80;99.90;;;;;;5051197;28;20377;-65
2022/10/11 07:40:56;;;;;;;62.58;22.55;;;13.70;99.90;;;;;;5048331;28;20021;-66
2022/10/11 07:43:22;;;;;;;55.80;22.30;;;13.80;99.90;;;;;;5050627;28;20102;-64
2022/10/11 07:45:53;;;;;;;53.15;21.10;;;13.70;99.90;;;;;;5049986;28;20025;-65
2022/10/11 07:48:19;;;;;;;52.63;21.80;;;13.70;99.90;;;;;;5050985;28;20036;-65
2022/10/11 07:50:44;;;;;;;60.15;22.02;;;13.60;99.90;;;;;;5049916;28;20021;-64
2022/10/11 07:53:10;;;;;;;53.33;22.63;;;13.70;99.90;;;;;;5050942;28;20493;-66
2022/10/11 07:55:40;;;;;;;57.40;21.45;;;13.70;99.90;;;;;;5050860;28;20025;-65
2022/10/11 07:58:07;;;;;;;64.47;22.27;;;13.60;99.90;;;;;;5050546;28;20094;-65
2022/10/11 08:00:33;;;;;;;55.35;21.58;;;13.70;99.90;;;;;;5050780;28;20037;-63
2022/10/11 08:03:02;;;;;;;53.35;21.45;;;13.70;99.90;;;;;;5049755;28;20048;-67
2022/10/11 08:05:28;;;;;;;60.08;22.38;;;13.70;99.90;;;;;;5050398;28;20029;-65
2022/10/11 08:07:54;;;;;;;60.08;21.92;;;13.70;99.90;;;;;;5049690;28;20040;-65
2022/10/11 08:10:19;;;;;;;50.70;21.52;;;13.60;99.90;;;;;;5050343;28;20107;-65
2022/10/11 08:12:48;;;;;;;68.75;23.13;;;13.70;99.90;;;;;;5049714;28;20103;-65
2022/10/11 08:15:13;;;;;;;55.97;22.30;;;13.70;99.90;;;;;;5050521;28;20032;-63
2022/10/11 08:17:39;;;;;;;52.97;21.88;;;13.60;99.90;;;;;;5050336;28;20100;-69
2022/10/11 08:20:05;;;;;;;59.00;21.73;;;13.70;99.90;;;;;;5049971;28;20115;-65
2022/10/11 08:22:31;;;;;;;57.67;22.10;;;13.70;99.90;;;;;;5049515;28;20499;-65
2022/10/11 08:24:56;;;;;;;60.17;23.05;;;13.80;99.90;;;;;;5049470;28;20033;-65
2022/10/11 08:27:22;;;;;;;53.30;22.15;;;13.80;99.90;;;;;;5050000;28;20052;-66
2022/10/11 08:29:48;;;;;;;62.80;23.02;;;13.70;99.90;;;;;;5049469;28;20027;-65
2022/10/11 08:32:14;;;;;;;59.50;23.02;;;13.80;99.90;;;;;;5050446;28;20115;-63
2022/10/11 08:34:39;;;;;;;61.05;22.45;;;13.90;99.90;;;;;;5049898;28;20740;-65
2022/10/11 08:37:05;;;;;;;61.72;22.35;;;14.00;99.90;;;;;;5049120;28;20037;-67
2022/10/11 08:39:31;;;;;;;55.67;21.20;;;14.10;99.90;;;;;;5049851;28;20025;-65
2022/10/11 08:42:25;;;;;;;51.50;21.55;;;14.20;99.90;;;;;;5047912;28;20442;-66
2022/10/11 08:44:57;;;;;;;53.30;20.35;;;14.30;99.90;;;;;;5045896;28;20041;-65
2022/10/11 08:47:37;;;;;;;57.33;21.27;;;14.30;99.90;;;;;;5049914;28;20029;-65
2022/10/11 08:50:05;;;;;;;46.53;18.65;;;14.40;99.90;;;;;;5049032;28;20028;-65
2022/10/11 08:52:37;;;;;;;52.00;20.75;;;14.50;99.90;;;;;;5049863;28;20115;-66
2022/10/11 08:55:20;;;;;;;47.65;20.00;;;14.60;99.90;;;;;;5049240;28;20122;-64
2022/10/11 08:57:52;;;;;;;43.17;19.25;;;14.70;99.90;;;;;;5048477;28;20025;-68
2022/10/11 09:00:19;;;;;;;45.30;19.40;;;14.80;99.90;;;;;;5029783;28;20022;-64
2022/10/11 09:03:03;;;;;;;46.58;19.25;;;14.90;99.90;;;;;;5027868;28;20045;-68
2022/10/11 09:05:48;;;;;;;42.65;18.67;;;15.00;99.90;;;;;;5049156;28;20040;-65
2022/10/11 09:08:24;;;;;;;50.30;21.35;;;15.00;99.90;;;;;;5049587;28;20028;-65
2022/10/11 09:11:13;;;;;;;57.22;22.27;;;14.90;99.90;;;;;;5048136;28;20500;-65
2022/10/11 09:14:06;;;;;;;50.30;21.52;;;14.90;99.90;;;;;;5049275;28;20072;-66
2022/10/11 09:17:06;;;;;;;55.15;21.55;;;14.80;99.90;;;;;;5049500;28;20029;-65
2022/10/11 09:19:58;;;;;;;42.35;19.63;;;14.60;99.90;;;;;;5049476;28;20039;-65
2022/10/11 09:22:35;;;;;;;54.58;22.85;;;14.50;99.90;;;;;;5049390;28;20059;-64
2022/10/11 09:25:25;;;;;;;45.45;20.55;;;14.40;99.90;;;;;;5048373;28;20021;-64
2022/10/11 09:28:03;;;;;;;48.15;21.23;;;14.50;99.90;;;;;;5048632;28;20117;-65
2022/10/11 09:30:29;;;;;;;46.88;20.48;;;14.60;99.90;;;;;;5049459;28;20033;-66
2022/10/11 09:33:07;;;;;;;48.45;19.33;;;14.70;99.90;;;;;;5048137;28;20478;-66
2022/10/11 09:35:38;;;;;;;42.72;18.83;;;14.80;99.90;;;;;;5046271;28;20075;-66
2022/10/11 09:38:36;;;;;;;44.83;18.05;;;14.90;99.90;;;;;;5048458;28;20037;-64
2022/10/11 09:41:12;;;;;;;43.95;19.73;;;14.90;99.90;;;;;;5048452;28;20079;-66
2022/10/11 09:43:38;;;;;;;41.08;18.38;;;15.10;99.90;;;;;;5049248;28;20052;-65
2022/10/11 09:46:36;;;;;;;36.97;17.38;;;15.20;99.90;;;;;;5048348;28;20029;-67
2022/10/11 09:49:11;;;;;;;47.17;19.67;;;15.30;99.90;;;;;;5045953;28;20529;-65
2022/10/11 09:51:38;;;;;;;42.20;18.50;;;15.50;99.90;;;;;;5048893;28;20444;-65
2022/10/11 09:54:05;;;;;;;39.45;17.48;;;15.50;99.90;;;;;;5048141;28;20045;-65
2022/10/11 09:56:38;;;;;;;49.30;18.73;;;15.70;99.90;;;;;;5048509;28;20057;-65
2022/10/11 09:59:34;;;;;;;47.63;18.95;;;15.70;99.90;;;;;;5048309;28;20037;-64
2022/10/11 10:02:16;;;;;;;42.03;17.33;;;15.60;99.90;;;;;;5047599;28;20044;-66
2022/10/11 10:05:03;;;;;;;37.35;16.60;;;15.50;99.90;;;;;;5049114;28;20112;-65
2022/10/11 10:07:31;;;;;;;38.03;16.95;;;15.50;99.90;;;;;;5049012;28;20029;-64
2022/10/11 10:09:57;;;;;;;54.55;18.27;;;15.50;99.90;;;;;;5048218;28;20040;-64
2022/10/11 10:12:26;;;;;;;51.58;19.13;;;15.50;99.90;;;;;;5048886;28;20029;-66
2022/10/11 10:15:06;;;;;;;36.90;15.95;;;15.50;99.90;;;;;;5048151;28;20056;-67
2022/10/11 10:17:34;;;;;;;38.40;15.10;;;15.60;99.90;;;;;;5048862;28;20040;-64
2022/10/11 10:20:04;;;;;;;38.63;15.80;;;15.60;99.90;;;;;;5047857;28;20382;-65
2022/10/11 10:22:33;;;;;;;29.93;14.27;;;15.70;99.90;;;;;;5048449;28;20048;-64
2022/10/11 10:25:06;;;;;;;26.25;12.70;;;15.70;99.90;;;;;;5047792;28;20039;-64
2022/10/11 10:27:32;;;;;;;29.13;13.63;;;15.70;99.90;;;;;;5048747;28;20044;-66
2022/10/11 10:30:06;;;;;;;36.80;14.00;;;15.70;99.90;;;;;;5047766;28;20029;-65
2022/10/11 10:32:35;;;;;;;27.20;12.73;;;15.70;99.90;;;;;;5048797;28;20118;-64
2022/10/11 10:35:12;;;;;;;30.70;12.07;;;15.70;99.90;;;;;;5047959;28;20036;-63
2022/10/11 10:37:44;;;;;;;36.58;17.67;;;15.70;99.90;;;;;;5048403;28;20025;-64
2022/10/11 10:40:19;;;;;;;33.92;15.73;;;15.60;99.90;;;;;;5047684;28;20029;-65
2022/10/11 10:42:45;;;;;;;34.97;15.27;;;15.60;99.90;;;;;;5048633;28;20039;-63
2022/10/11 10:45:16;;;;;;;36.92;14.45;;;15.50;99.90;;;;;;5048130;28;20107;-63
2022/10/11 10:48:06;;;;;;;31.85;14.48;;;15.50;99.90;;;;;;5052191;28;20032;-65
2022/10/11 10:50:48;;;;;;;37.80;15.93;;;15.50;99.90;;;;;;5052110;28;20032;-63
2022/10/11 10:53:32;;;;;;;38.47;14.93;;;15.20;99.90;;;;;;5050871;28;20385;-66
2022/10/11 10:56:01;;;;;;;35.50;14.88;;;15.10;99.90;;;;;;5050883;28;20055;-65
2022/10/11 10:58:42;;;;;;;45.45;17.88;;;15.00;99.90;;;;;;5051655;28;20028;-65
2022/10/11 11:01:19;;;;;;;40.05;18.15;;;15.00;99.90;;;;;;5050911;28;20072;-66
2022/10/11 11:03:46;;;;;;;40.28;18.27;;;15.00;99.90;;;;;;5051737;28;20537;-65
2022/10/11 11:06:26;;;;;;;54.15;22.10;;;15.00;99.90;;;;;;5049669;28;20029;-64
2022/10/11 11:08:57;;;;;;;57.60;27.00;;;15.00;99.90;;;;;;5051311;28;20466;-70
2022/10/11 11:11:32;;;;;;;40.90;18.83;;;15.00;99.90;;;;;;5051717;28;20083;-65
2022/10/11 11:14:30;;;;;;;44.38;18.73;;;15.10;99.90;;;;;;5050914;28;20032;-65
2022/10/11 11:17:34;;;;;;;38.67;16.55;;;15.20;99.90;;;;;;5049169;28;20520;-65
2022/10/11 11:20:25;;;;;;;44.38;16.98;;;15.40;99.90;;;;;;5048972;28;20074;-64
2022/10/11 11:22:53;;;;;;;37.00;15.25;;;15.40;99.90;;;;;;5051313;28;20055;-69
2022/10/11 11:25:45;;;;;;;37.22;15.35;;;15.40;99.90;;;;;;5051487;28;20135;-65
2022/10/11 11:28:40;;;;;;;36.60;14.98;;;15.40;99.90;;;;;;5050188;28;20029;-65
2022/10/11 11:31:20;;;;;;;34.80;15.82;;;15.30;99.90;;;;;;5030740;28;20053;-66
2022/10/11 11:33:55;;;;;;;34.63;15.75;;;15.30;99.90;;;;;;5031409;28;20033;-65
2022/10/11 11:36:45;;;;;;;41.30;16.73;;;15.30;99.90;;;;;;5031434;28;20057;-63
2022/10/11 11:39:19;;;;;;;45.45;15.65;;;15.20;99.90;;;;;;5030818;28;20025;-65
2022/10/11 11:42:06;;;;;;;36.72;16.08;;;15.30;99.90;;;;;;5031332;28;20516;-65
2022/10/11 11:44:37;;;;;;;45.55;18.98;;;15.30;99.90;;;;;;5035073;28;20485;-65
2022/10/11 11:47:05;;;;;;;;;;;15.40;99.90;;;;;;5050814;28;20099;-66
2022/10/11 11:49:35;;;;;;;35.72;16.45;;;15.50;99.90;;;;;;5051000;28;19935;-65
2022/10/11 11:52:02;;;;;;;44.22;16.75;;;15.60;99.90;;;;;;5050330;28;20056;-65
2022/10/11 11:54:47;;;;;;;34.97;16.55;;;15.80;99.90;;;;;;5050747;28;20044;-63
2022/10/11 11:57:33;;;;;;;38.38;15.88;;;16.00;99.90;;;;;;5050017;28;20048;-67
2022/10/11 12:00:46;;;;;;;37.58;15.35;;;16.40;99.90;;;;;;5049706;28;20029;-66
2022/10/11 12:03:20;;;;;;;43.60;14.48;;;16.60;99.90;;;;;;5044001;28;20154;-64
2022/10/11 12:06:13;;;;;;;42.42;20.25;;;16.60;99.90;;;;;;5051054;28;20061;-63
2022/10/11 12:08:45;;;;;;;30.67;14.32;;;16.80;99.90;;;;;;5050774;28;20086;-63
2022/10/11 12:11:25;;;;;;;26.13;13.15;;;16.80;99.90;;;;;;5049674;28;20021;-64
2022/10/11 12:13:53;;;;;;;27.27;11.75;;;17.00;99.90;;;;;;5050028;28;20067;-65
2022/10/11 12:16:20;;;;;;;25.65;11.65;;;17.10;99.90;;;;;;5049622;28;20052;-65
2022/10/11 12:19:14;;;;;;;24.70;10.82;;;17.00;99.90;;;;;;5049933;28;20040;-63
2022/10/11 12:21:43;;;;;;;25.55;11.30;;;17.10;99.90;;;;;;5049876;28;20057;-65
2022/10/11 12:24:31;;;;;;;24.65;10.63;;;17.10;99.90;;;;;;5049663;28;20037;-66
2022/10/11 12:26:58;;;;;;;21.80;9.80;;;17.30;99.90;;;;;;5049530;28;20048;-67
2022/10/11 12:29:47;;;;;;;33.88;10.07;;;17.60;99.90;;;;;;5049987;28;20385;-67
2022/10/11 12:32:35;;;;;;;25.15;10.00;;;17.90;99.90;;;;;;5049673;28;20032;-65
2022/10/11 12:35:32;;;;;;;32.13;10.20;;;17.90;99.90;;;;;;5049080;28;20393;-66
2022/10/11 12:38:13;;;;;;;28.75;10.15;;;17.90;99.90;;;;;;5044909;28;20036;-69
2022/10/11 12:40:40;;;;;;;26.02;10.27;;;17.70;99.90;;;;;;5050373;28;20029;-64
2022/10/11 12:43:18;;;;;;;25.90;9.85;;;17.60;99.90;;;;;;5049194;28;20037;-63
2022/10/11 12:45:46;;;;;;;24.48;10.63;;;17.30;99.90;;;;;;5048590;28;20081;-64
2022/10/11 12:48:39;;;;;;;32.28;13.95;;;17.20;99.90;;;;;;5048775;28;20037;-63
2022/10/11 12:51:31;;;;;;;25.70;11.65;;;16.90;99.90;;;;;;5048937;28;20040;-67